sensor_id;sensor_type;location;lat;lon;timestamp;pressure;altitude;pressure_sealevel;temperature;humidity
31096;BME280;17749;51.962;8.560;2024-01-10T06:03:17;101434.75;;;-6.16;100.00
31096;BME280;17749;51.962;8.560;2024-01-10T06:05:45;101445.09;;;-6.18;100.00
31096;BME280;17749;51.962;8.560;2024-01-10T06:08:13;101443.13;;;-6.22;100.00
31096;BME280;17749;51.962;8.560;2024-01-10T06:10:55;101453.47;;;-6.23;100.00
31096;BME280;17749;51.962;8.560;2024-01-10T06:13:25;101449.66;;;-6.30;100.00
31096;BME280;17749;51.962;8.560;2024-01-10T06:16:07;101448.56;;;-6.17;100.00
31096;BME280;17749;51.962;8.560;2024-01-10T06:18:34;101459.06;;;-6.14;100.00
31096;BME280;17749;51.962;8.560;2024-01-10T06:21:01;101460.09;;;-6.10;100.00
31096;BME280;17749;51.962;8.560;2024-01-10T06:23:28;101466.13;;;-6.11;100.00
31096;BME280;17749;51.962;8.560;2024-01-10T06:25:55;101464.50;;;-6.09;100.00
31096;BME280;17749;51.962;8.560;2024-01-10T06:28:22;101476.72;;;-6.07;100.00
31096;BME280;17749;51.962;8.560;2024-01-10T06:30:50;101474.03;;;-6.08;100.00
31096;BME280;17749;51.962;8.560;2024-01-10T06:33:17;101477.31;;;-6.12;100.00
31096;BME280;17749;51.962;8.560;2024-01-10T06:35:44;101473.59;;;-6.18;100.00
31096;BME280;17749;51.962;8.560;2024-01-10T06:38:12;101483.84;;;-6.21;100.00
31096;BME280;17749;51.962;8.560;2024-01-10T06:40:39;101490.16;;;-6.32;100.00
31096;BME280;17749;51.962;8.560;2024-01-10T06:43:07;101491.63;;;-6.37;100.00
31096;BME280;17749;51.962;8.560;2024-01-10T06:45:35;101491.63;;;-6.37;100.00
31096;BME280;17749;51.962;8.560;2024-01-10T06:48:02;101498.13;;;-6.45;100.00
31096;BME280;17749;51.962;8.560;2024-01-10T06:50:29;101505.66;;;-6.50;100.00
31096;BME280;17749;51.962;8.560;2024-01-10T06:52:57;101494.13;;;-6.56;100.00
31096;BME280;17749;51.962;8.560;2024-01-10T06:55:24;101502.88;;;-6.54;100.00
31096;BME280;17749;51.962;8.560;2024-01-10T06:57:51;101495.72;;;-6.58;100.00
31096;BME280;17749;51.962;8.560;2024-01-10T07:00:22;101508.53;;;-6.62;100.00
31096;BME280;17749;51.962;8.560;2024-01-10T07:02:49;101507.72;;;-6.61;100.00
31096;BME280;17749;51.962;8.560;2024-01-10T07:05:16;101514.84;;;-6.56;100.00
31096;BME280;17749;51.962;8.560;2024-01-10T07:07:44;101497.69;;;-6.54;100.00
31096;BME280;17749;51.962;8.560;2024-01-10T07:10:11;101500.91;;;-6.58;100.00
31096;BME280;17749;51.962;8.560;2024-01-10T07:12:38;101509.16;;;-6.66;100.00
31096;BME280;17749;51.962;8.560;2024-01-10T07:15:06;101500.28;;;-6.71;100.00
31096;BME280;17749;51.962;8.560;2024-01-10T07:17:32;101500.59;;;-6.65;100.00
31096;BME280;17749;51.962;8.560;2024-01-10T07:20:00;101499.00;;;-6.63;100.00
31096;BME280;17749;51.962;8.560;2024-01-10T07:22:27;101497.63;;;-6.72;100.00
31096;BME280;17749;51.962;8.560;2024-01-10T07:24:54;101505.81;;;-6.81;100.00
31096;BME280;17749;51.962;8.560;2024-01-10T07:27:21;101513.09;;;-6.90;100.00
31096;BME280;17749;51.962;8.560;2024-01-10T07:29:48;101504.50;;;-6.89;100.00
31096;BME280;17749;51.962;8.560;2024-01-10T07:32:15;101504.69;;;-6.86;100.00
31096;BME280;17749;51.962;8.560;2024-01-10T07:34:42;101506.44;;;-6.85;100.00
31096;BME280;17749;51.962;8.560;2024-01-10T07:37:09;101519.66;;;-6.80;100.00
31096;BME280;17749;51.962;8.560;2024-01-10T07:39:37;101513.66;;;-6.79;100.00
31096;BME280;17749;51.962;8.560;2024-01-10T07:42:05;101516.41;;;-6.76;100.00
31096;BME280;17749;51.962;8.560;2024-01-10T07:44:32;101511.47;;;-6.72;100.00
31096;BME280;17749;51.962;8.560;2024-01-10T07:46:59;101498.66;;;-6.69;100.00
31096;BME280;17749;51.962;8.560;2024-01-10T07:49:26;101512.59;;;-6.67;100.00
31096;BME280;17749;51.962;8.560;2024-01-10T07:51:53;101516.63;;;-6.72;100.00
31096;BME280;17749;51.962;8.560;2024-01-10T07:54:21;101510.81;;;-6.68;100.00
31096;BME280;17749;51.962;8.560;2024-01-10T07:56:49;101507.50;;;-6.65;100.00
31096;BME280;17749;51.962;8.560;2024-01-10T07:59:16;101515.69;;;-6.57;100.00
31096;BME280;17749;51.962;8.560;2024-01-10T08:01:54;101503.91;;;-6.51;100.00
31096;BME280;17749;51.962;8.560;2024-01-10T08:04:24;101500.47;;;-6.50;100.00
31096;BME280;17749;51.962;8.560;2024-01-10T08:06:52;101494.75;;;-6.44;100.00
31096;BME280;17749;51.962;8.560;2024-01-10T08:09:19;101487.50;;;-6.33;100.00
31096;BME280;17749;51.962;8.560;2024-01-10T08:11:46;101480.28;;;-6.23;100.00
31096;BME280;17749;51.962;8.560;2024-01-10T08:14:14;101476.25;;;-6.16;100.00
31096;BME280;17749;51.962;8.560;2024-01-10T08:16:42;101468.72;;;-6.11;100.00
31096;BME280;17749;51.962;8.560;2024-01-10T08:19:11;101469.91;;;-6.05;100.00
31096;BME280;17749;51.962;8.560;2024-01-10T08:21:38;101463.25;;;-6.00;100.00
31096;BME280;17749;51.962;8.560;2024-01-10T08:24:06;101457.56;;;-5.91;100.00
31096;BME280;17749;51.962;8.560;2024-01-10T08:26:32;101456.22;;;-5.83;99.92
31096;BME280;17749;51.962;8.560;2024-01-10T08:29:00;101460.06;;;-5.75;99.54
31096;BME280;17749;51.962;8.560;2024-01-10T08:31:27;101461.25;;;-5.68;98.61
31096;BME280;17749;51.962;8.560;2024-01-10T08:33:54;101457.97;;;-5.64;99.12
31096;BME280;17749;51.962;8.560;2024-01-10T08:36:23;101461.63;;;-5.60;98.03
31096;BME280;17749;51.962;8.560;2024-01-10T08:38:54;101457.31;;;-5.60;98.19
31096;BME280;17749;51.962;8.560;2024-01-10T08:41:21;101465.09;;;-5.60;99.09
31096;BME280;17749;51.962;8.560;2024-01-10T08:43:48;101454.72;;;-5.60;98.54
31096;BME280;17749;51.962;8.560;2024-01-10T08:46:15;101459.81;;;-5.61;100.00
31096;BME280;17749;51.962;8.560;2024-01-10T08:48:43;101462.44;;;-5.61;100.00
31096;BME280;17749;51.962;8.560;2024-01-10T08:51:10;101467.47;;;-5.64;100.00
31096;BME280;17749;51.962;8.560;2024-01-10T08:53:38;101479.63;;;-5.63;100.00
31096;BME280;17749;51.962;8.560;2024-01-10T08:56:07;101478.13;;;-5.58;99.69
31096;BME280;17749;51.962;8.560;2024-01-10T08:58:34;101470.72;;;-5.51;99.30
31096;BME280;17749;51.962;8.560;2024-01-10T09:01:03;101470.88;;;-5.47;98.51
31096;BME280;17749;51.962;8.560;2024-01-10T09:03:31;101472.69;;;-5.45;100.00
31096;BME280;17749;51.962;8.560;2024-01-10T09:05:58;101469.16;;;-5.47;98.64
31096;BME280;17749;51.962;8.560;2024-01-10T09:08:36;101466.72;;;-5.44;99.26
31096;BME280;17749;51.962;8.560;2024-01-10T09:11:06;101472.03;;;-5.41;99.25
31096;BME280;17749;51.962;8.560;2024-01-10T09:13:33;101467.88;;;-5.37;98.85
31096;BME280;17749;51.962;8.560;2024-01-10T09:16:01;101464.38;;;-5.38;98.92
31096;BME280;17749;51.962;8.560;2024-01-10T09:18:28;101459.31;;;-5.35;98.93
31096;BME280;17749;51.962;8.560;2024-01-10T09:20:56;101453.47;;;-5.31;99.61
31096;BME280;17749;51.962;8.560;2024-01-10T09:23:23;101449.38;;;-5.25;99.18
31096;BME280;17749;51.962;8.560;2024-01-10T09:25:51;101452.38;;;-5.16;98.04
31096;BME280;17749;51.962;8.560;2024-01-10T09:28:18;101452.88;;;-5.05;96.92
31096;BME280;17749;51.962;8.560;2024-01-10T09:30:45;101456.00;;;-4.93;95.43
31096;BME280;17749;51.962;8.560;2024-01-10T09:33:13;101446.91;;;-4.83;94.78
31096;BME280;17749;51.962;8.560;2024-01-10T09:35:40;101455.09;;;-4.74;95.23
31096;BME280;17749;51.962;8.560;2024-01-10T09:38:08;101454.66;;;-4.64;94.60
31096;BME280;17749;51.962;8.560;2024-01-10T09:40:35;101449.63;;;-4.61;94.10
31096;BME280;17749;51.962;8.560;2024-01-10T09:43:02;101453.28;;;-4.56;93.69
31096;BME280;17749;51.962;8.560;2024-01-10T09:45:31;101451.91;;;-4.48;94.03
31096;BME280;17749;51.962;8.560;2024-01-10T09:48:01;101452.84;;;-4.46;93.68
31096;BME280;17749;51.962;8.560;2024-01-10T09:50:29;101457.25;;;-4.45;94.13
31096;BME280;17749;51.962;8.560;2024-01-10T09:53:06;101447.84;;;-4.41;94.76
31096;BME280;17749;51.962;8.560;2024-01-10T09:55:37;101448.59;;;-4.44;94.75
31096;BME280;17749;51.962;8.560;2024-01-10T09:58:08;101454.63;;;-4.45;94.39
31096;BME280;17749;51.962;8.560;2024-01-10T10:00:37;101456.19;;;-4.48;95.19
31096;BME280;17749;51.962;8.560;2024-01-10T10:03:10;101457.78;;;-4.52;95.02
31096;BME280;17749;51.962;8.560;2024-01-10T10:05:39;101456.84;;;-4.54;96.65
31096;BME280;17749;51.962;8.560;2024-01-10T10:08:14;101449.88;;;-4.55;96.77
31096;BME280;17749;51.962;8.560;2024-01-10T10:10:49;101453.28;;;-4.56;97.37
31096;BME280;17749;51.962;8.560;2024-01-10T10:13:30;101458.63;;;-4.53;97.36
31096;BME280;17749;51.962;8.560;2024-01-10T10:16:03;101459.72;;;-4.48;96.96
31096;BME280;17749;51.962;8.560;2024-01-10T10:18:31;101453.81;;;-4.44;97.56
31096;BME280;17749;51.962;8.560;2024-01-10T10:21:13;101456.69;;;-4.37;97.36
31096;BME280;17749;51.962;8.560;2024-01-10T10:23:41;101455.22;;;-4.31;97.16
31096;BME280;17749;51.962;8.560;2024-01-10T10:26:18;101466.63;;;-4.27;97.44
31096;BME280;17749;51.962;8.560;2024-01-10T10:28:48;101457.88;;;-4.29;97.06
31096;BME280;17749;51.962;8.560;2024-01-10T10:31:17;101459.53;;;-4.31;99.11
31096;BME280;17749;51.962;8.560;2024-01-10T10:33:45;101457.13;;;-4.27;98.83
31096;BME280;17749;51.962;8.560;2024-01-10T10:36:15;101445.69;;;-4.30;98.14
31096;BME280;17749;51.962;8.560;2024-01-10T10:38:42;101447.34;;;-4.32;98.17
31096;BME280;17749;51.962;8.560;2024-01-10T10:41:09;101443.81;;;-4.34;98.40
31096;BME280;17749;51.962;8.560;2024-01-10T10:43:40;101448.41;;;-4.27;98.87
31096;BME280;17749;51.962;8.560;2024-01-10T10:46:11;101454.97;;;-4.16;100.00
31096;BME280;17749;51.962;8.560;2024-01-10T10:48:42;101451.91;;;-4.06;99.03
31096;BME280;17749;51.962;8.560;2024-01-10T10:51:19;101441.88;;;-3.97;99.34
31096;BME280;17749;51.962;8.560;2024-01-10T10:53:51;101447.94;;;-3.96;98.90
31096;BME280;17749;51.962;8.560;2024-01-10T10:56:19;101443.78;;;-3.92;98.25
31096;BME280;17749;51.962;8.560;2024-01-10T10:58:46;101445.53;;;-3.91;97.23
31096;BME280;17749;51.962;8.560;2024-01-10T11:01:14;101444.78;;;-3.89;96.50
31096;BME280;17749;51.962;8.560;2024-01-10T11:03:42;101439.69;;;-3.86;96.42
31096;BME280;17749;51.962;8.560;2024-01-10T11:06:11;101438.16;;;-3.81;97.03
31096;BME280;17749;51.962;8.560;2024-01-10T11:08:45;101437.50;;;-3.75;96.01
31096;BME280;17749;51.962;8.560;2024-01-10T11:14:06;101439.75;;;-3.62;95.67
31096;BME280;17749;51.962;8.560;2024-01-10T11:19:58;101448.88;;;-3.50;96.30
31096;BME280;17749;51.962;8.560;2024-01-10T11:25:16;101441.59;;;-3.37;97.04
31096;BME280;17749;51.962;8.560;2024-01-10T11:27:45;101446.03;;;-3.34;96.77
31096;BME280;17749;51.962;8.560;2024-01-10T11:30:33;101451.47;;;-3.28;95.66
31096;BME280;17749;51.962;8.560;2024-01-10T11:33:02;101449.09;;;-3.22;96.22
31096;BME280;17749;51.962;8.560;2024-01-10T11:36:07;101454.47;;;-3.17;97.13
31096;BME280;17749;51.962;8.560;2024-01-10T11:46:47;101453.16;;;-3.06;95.06
31096;BME280;17749;51.962;8.560;2024-01-10T11:49:16;101439.28;;;-3.05;95.63
31096;BME280;17749;51.962;8.560;2024-01-10T11:51:45;101442.88;;;-3.01;95.80
31096;BME280;17749;51.962;8.560;2024-01-10T11:54:38;101438.88;;;-2.93;96.60
31096;BME280;17749;51.962;8.560;2024-01-10T11:57:20;101438.97;;;-2.90;94.02
31096;BME280;17749;51.962;8.560;2024-01-10T11:59:55;101433.84;;;-2.87;95.83
31096;BME280;17749;51.962;8.560;2024-01-10T12:02:23;101441.00;;;-2.81;94.73
31096;BME280;17749;51.962;8.560;2024-01-10T12:04:55;101435.19;;;-2.74;95.04
31096;BME280;17749;51.962;8.560;2024-01-10T12:07:22;101434.31;;;-2.75;94.62
31096;BME280;17749;51.962;8.560;2024-01-10T12:09:52;101431.91;;;-2.69;94.84
31096;BME280;17749;51.962;8.560;2024-01-10T12:12:19;101436.41;;;-2.65;95.73
31096;BME280;17749;51.962;8.560;2024-01-10T12:14:46;101423.50;;;-2.60;95.68
31096;BME280;17749;51.962;8.560;2024-01-10T12:17:13;101425.41;;;-2.54;95.62
31096;BME280;17749;51.962;8.560;2024-01-10T12:19:41;101424.78;;;-2.49;95.14
31096;BME280;17749;51.962;8.560;2024-01-10T12:22:16;101422.28;;;-2.44;94.88
31096;BME280;17749;51.962;8.560;2024-01-10T12:24:44;101416.34;;;-2.40;95.39
31096;BME280;17749;51.962;8.560;2024-01-10T12:27:19;101414.78;;;-2.35;95.12
31096;BME280;17749;51.962;8.560;2024-01-10T12:29:51;101410.38;;;-2.36;93.85
31096;BME280;17749;51.962;8.560;2024-01-10T12:32:21;101420.09;;;-2.32;93.23
31096;BME280;17749;51.962;8.560;2024-01-10T12:35:08;101418.44;;;-2.30;94.02
31096;BME280;17749;51.962;8.560;2024-01-10T12:37:35;101420.28;;;-2.26;94.34
31096;BME280;17749;51.962;8.560;2024-01-10T12:40:03;101409.84;;;-2.26;94.06
31096;BME280;17749;51.962;8.560;2024-01-10T12:42:36;101413.50;;;-2.21;93.06
31096;BME280;17749;51.962;8.560;2024-01-10T12:45:03;101404.94;;;-2.16;92.72
31096;BME280;17749;51.962;8.560;2024-01-10T12:47:30;101407.81;;;-2.09;93.48
31096;BME280;17749;51.962;8.560;2024-01-10T12:49:58;101404.56;;;-2.02;93.67
31096;BME280;17749;51.962;8.560;2024-01-10T12:52:25;101409.81;;;-2.00;92.94
31096;BME280;17749;51.962;8.560;2024-01-10T12:54:52;101403.91;;;-1.94;93.10
31096;BME280;17749;51.962;8.560;2024-01-10T12:57:20;101400.50;;;-1.92;93.94
31096;BME280;17749;51.962;8.560;2024-01-10T12:59:47;101409.28;;;-1.90;93.49
31096;BME280;17749;51.962;8.560;2024-01-10T13:02:15;101397.16;;;-1.88;92.87
31096;BME280;17749;51.962;8.560;2024-01-10T13:04:42;101398.91;;;-1.87;91.05
31096;BME280;17749;51.962;8.560;2024-01-10T13:07:09;101403.34;;;-1.84;91.82
31096;BME280;17749;51.962;8.560;2024-01-10T13:09:36;101406.03;;;-1.83;92.56
31096;BME280;17749;51.962;8.560;2024-01-10T13:12:04;101411.25;;;-1.83;92.74
31096;BME280;17749;51.962;8.560;2024-01-10T13:14:32;101411.19;;;-1.84;92.02
31096;BME280;17749;51.962;8.560;2024-01-10T13:16:59;101416.38;;;-1.86;92.45
31096;BME280;17749;51.962;8.560;2024-01-10T13:19:26;101418.13;;;-1.85;93.03
31096;BME280;17749;51.962;8.560;2024-01-10T13:21:54;101414.75;;;-1.82;93.66
31096;BME280;17749;51.962;8.560;2024-01-10T13:24:21;101419.97;;;-1.82;91.56
31096;BME280;17749;51.962;8.560;2024-01-10T13:26:49;101412.84;;;-1.86;91.94
31096;BME280;17749;51.962;8.560;2024-01-10T13:29:16;101408.56;;;-1.84;92.40
31096;BME280;17749;51.962;8.560;2024-01-10T13:31:43;101408.63;;;-1.83;92.46
31096;BME280;17749;51.962;8.560;2024-01-10T13:34:10;101411.16;;;-1.86;92.10
31096;BME280;17749;51.962;8.560;2024-01-10T13:36:38;101405.94;;;-1.86;92.21
31096;BME280;17749;51.962;8.560;2024-01-10T13:39:06;101402.47;;;-1.85;92.90
31096;BME280;17749;51.962;8.560;2024-01-10T13:41:33;101407.78;;;-1.82;94.32
31096;BME280;17749;51.962;8.560;2024-01-10T13:44:01;101408.78;;;-1.78;94.84
31096;BME280;17749;51.962;8.560;2024-01-10T13:46:28;101408.88;;;-1.75;93.89
31096;BME280;17749;51.962;8.560;2024-01-10T13:48:55;101413.22;;;-1.75;94.35
31096;BME280;17749;51.962;8.560;2024-01-10T13:51:22;101414.19;;;-1.72;94.37
31096;BME280;17749;51.962;8.560;2024-01-10T13:53:49;101415.00;;;-1.73;94.01
31096;BME280;17749;51.962;8.560;2024-01-10T13:56:16;101422.03;;;-1.72;94.80
31096;BME280;17749;51.962;8.560;2024-01-10T13:58:43;101420.22;;;-1.73;95.28
31096;BME280;17749;51.962;8.560;2024-01-10T14:01:10;101421.94;;;-1.75;94.79
31096;BME280;17749;51.962;8.560;2024-01-10T14:03:37;101421.97;;;-1.73;95.76
31096;BME280;17749;51.962;8.560;2024-01-10T14:06:04;101430.75;;;-1.71;96.69
31096;BME280;17749;51.962;8.560;2024-01-10T14:08:31;101427.19;;;-1.73;97.40
31096;BME280;17749;51.962;8.560;2024-01-10T14:10:58;101428.97;;;-1.72;96.43
31096;BME280;17749;51.962;8.560;2024-01-10T14:13:26;101423.75;;;-1.72;96.66
31096;BME280;17749;51.962;8.560;2024-01-10T14:15:53;101417.63;;;-1.73;97.20
31096;BME280;17749;51.962;8.560;2024-01-10T14:18:21;101427.19;;;-1.73;97.22
31096;BME280;17749;51.962;8.560;2024-01-10T14:20:48;101427.25;;;-1.72;97.06
31096;BME280;17749;51.962;8.560;2024-01-10T14:23:15;101426.38;;;-1.72;97.80
31096;BME280;17749;51.962;8.560;2024-01-10T14:25:44;101427.19;;;-1.73;98.31
31096;BME280;17749;51.962;8.560;2024-01-10T14:28:11;101421.97;;;-1.73;98.42
31096;BME280;17749;51.962;8.560;2024-01-10T14:30:39;101421.06;;;-1.75;97.95
31096;BME280;17749;51.962;8.560;2024-01-10T14:33:07;101418.31;;;-1.79;98.59
31096;BME280;17749;51.962;8.560;2024-01-10T14:35:35;101417.44;;;-1.79;98.77
31096;BME280;17749;51.962;8.560;2024-01-10T14:38:02;101423.53;;;-1.79;99.25
31096;BME280;17749;51.962;8.560;2024-01-10T14:40:30;101426.16;;;-1.79;98.55
31096;BME280;17749;51.962;8.560;2024-01-10T14:42:57;101422.66;;;-1.79;98.72
31096;BME280;17749;51.962;8.560;2024-01-10T14:45:24;101427.00;;;-1.80;99.90
31096;BME280;17749;51.962;8.560;2024-01-10T14:47:51;101427.00;;;-1.80;99.75
31096;BME280;17749;51.962;8.560;2024-01-10T14:50:19;101423.44;;;-1.83;100.00
31096;BME280;17749;51.962;8.560;2024-01-10T14:52:46;101424.31;;;-1.83;100.00
31096;BME280;17749;51.962;8.560;2024-01-10T14:55:13;101424.31;;;-1.83;100.00
31096;BME280;17749;51.962;8.560;2024-01-10T14:57:40;101424.22;;;-1.86;100.00
31096;BME280;17749;51.962;8.560;2024-01-10T15:00:07;101428.50;;;-1.88;100.00
31096;BME280;17749;51.962;8.560;2024-01-10T15:02:35;101429.13;;;-1.95;100.00
31096;BME280;17749;51.962;8.560;2024-01-10T15:05:05;101431.56;;;-2.01;100.00
31096;BME280;17749;51.962;8.560;2024-01-10T15:07:32;101427.22;;;-2.01;100.00
31096;BME280;17749;51.962;8.560;2024-01-10T15:09:59;101428.94;;;-2.01;100.00
31096;BME280;17749;51.962;8.560;2024-01-10T15:12:30;101426.25;;;-2.04;100.00
31096;BME280;17749;51.962;8.560;2024-01-10T15:14:57;101427.91;;;-2.06;100.00
31096;BME280;17749;51.962;8.560;2024-01-10T15:17:27;101426.97;;;-2.08;100.00
31096;BME280;17749;51.962;8.560;2024-01-10T15:19:54;101424.25;;;-2.11;100.00
31096;BME280;17749;51.962;8.560;2024-01-10T15:22:21;101433.75;;;-2.13;100.00
31096;BME280;17749;51.962;8.560;2024-01-10T15:24:48;101443.16;;;-2.18;100.00
31096;BME280;17749;51.962;8.560;2024-01-10T15:27:15;101449.13;;;-2.23;100.00
31096;BME280;17749;51.962;8.560;2024-01-10T15:29:42;101448.03;;;-2.29;100.00
31096;BME280;17749;51.962;8.560;2024-01-10T15:32:14;101448.81;;;-2.32;100.00
31096;BME280;17749;51.962;8.560;2024-01-10T15:34:41;101443.53;;;-2.33;100.00
31096;BME280;17749;51.962;8.560;2024-01-10T15:37:08;101447.88;;;-2.34;100.00
31096;BME280;17749;51.962;8.560;2024-01-10T15:39:35;101445.09;;;-2.38;100.00
31096;BME280;17749;51.962;8.560;2024-01-10T15:42:03;101450.19;;;-2.43;100.00
31096;BME280;17749;51.962;8.560;2024-01-10T15:44:30;101445.69;;;-2.47;100.00
31096;BME280;17749;51.962;8.560;2024-01-10T15:46:57;101440.25;;;-2.53;100.00
31096;BME280;17749;51.962;8.560;2024-01-10T15:49:24;101433.25;;;-2.54;100.00
31096;BME280;17749;51.962;8.560;2024-01-10T15:51:51;101440.19;;;-2.55;100.00
31096;BME280;17749;51.962;8.560;2024-01-10T15:54:19;101438.38;;;-2.57;100.00
31096;BME280;17749;51.962;8.560;2024-01-10T15:56:46;101440.88;;;-2.60;100.00
31096;BME280;17749;51.962;8.560;2024-01-10T15:59:13;101449.53;;;-2.61;100.00
31096;BME280;17749;51.962;8.560;2024-01-10T16:01:40;101451.28;;;-2.62;100.00
31096;BME280;17749;51.962;8.560;2024-01-10T16:04:07;101441.63;;;-2.65;100.00
31096;BME280;17749;51.962;8.560;2024-01-10T16:06:35;101438.06;;;-2.67;100.00
31096;BME280;17749;51.962;8.560;2024-01-10T16:09:02;101452.69;;;-2.70;100.00
31096;BME280;17749;51.962;8.560;2024-01-10T16:11:31;101444.00;;;-2.71;100.00
31096;BME280;17749;51.962;8.560;2024-01-10T16:13:58;101441.28;;;-2.74;100.00
31096;BME280;17749;51.962;8.560;2024-01-10T16:16:28;101442.94;;;-2.76;100.00
31096;BME280;17749;51.962;8.560;2024-01-10T16:18:57;101447.28;;;-2.76;100.00
31096;BME280;17749;51.962;8.560;2024-01-10T16:21:25;101447.19;;;-2.78;100.00
31096;BME280;17749;51.962;8.560;2024-01-10T16:23:52;101447.94;;;-2.82;100.00
31096;BME280;17749;51.962;8.560;2024-01-10T16:26:20;101444.28;;;-2.87;100.00
31096;BME280;17749;51.962;8.560;2024-01-10T16:28:48;101456.38;;;-2.89;100.00
31096;BME280;17749;51.962;8.560;2024-01-10T16:31:18;101445.84;;;-2.92;100.00
31096;BME280;17749;51.962;8.560;2024-01-10T16:33:45;101443.94;;;-2.96;100.00
31096;BME280;17749;51.962;8.560;2024-01-10T16:36:12;101446.50;;;-2.98;100.00
31096;BME280;17749;51.962;8.560;2024-01-10T16:38:38;101440.16;;;-3.04;100.00
31096;BME280;17749;51.962;8.560;2024-01-10T16:41:07;101445.28;;;-3.08;100.00
31096;BME280;17749;51.962;8.560;2024-01-10T16:43:34;101443.41;;;-3.12;100.00
31096;BME280;17749;51.962;8.560;2024-01-10T16:46:01;101443.41;;;-3.12;100.00
31096;BME280;17749;51.962;8.560;2024-01-10T16:48:28;101443.41;;;-3.12;100.00
31096;BME280;17749;51.962;8.560;2024-01-10T16:50:56;101436.28;;;-3.16;100.00
31096;BME280;17749;51.962;8.560;2024-01-10T16:53:22;101449.22;;;-3.19;100.00
31096;BME280;17749;51.962;8.560;2024-01-10T16:55:50;101445.78;;;-3.18;100.00
31096;BME280;17749;51.962;8.560;2024-01-10T16:58:17;101453.47;;;-3.21;100.00
31096;BME280;17749;51.962;8.560;2024-01-10T17:00:45;101449.09;;;-3.22;100.00
31096;BME280;17749;51.962;8.560;2024-01-10T17:03:12;101442.06;;;-3.24;100.00
31096;BME280;17749;51.962;8.560;2024-01-10T17:05:39;101444.72;;;-3.23;100.00
31096;BME280;17749;51.962;8.560;2024-01-10T17:08:10;101457.63;;;-3.26;100.00
31096;BME280;17749;51.962;8.560;2024-01-10T17:10:37;101454.91;;;-3.29;100.00
31096;BME280;17749;51.962;8.560;2024-01-10T17:13:04;101460.00;;;-3.32;100.00
31096;BME280;17749;51.962;8.560;2024-01-10T17:15:31;101477.19;;;-3.37;100.00
31096;BME280;17749;51.962;8.560;2024-01-10T17:18:00;101472.00;;;-3.36;100.00
31096;BME280;17749;51.962;8.560;2024-01-10T17:20:27;101469.38;;;-3.37;100.00
31096;BME280;17749;51.962;8.560;2024-01-10T17:22:55;101476.22;;;-3.39;100.00
31096;BME280;17749;51.962;8.560;2024-01-10T17:25:22;101475.28;;;-3.41;100.00
31096;BME280;17749;51.962;8.560;2024-01-10T17:27:51;101464.75;;;-3.44;100.00
31096;BME280;17749;51.962;8.560;2024-01-10T17:30:18;101467.28;;;-3.46;100.00
31096;BME280;17749;51.962;8.560;2024-01-10T17:32:46;101466.28;;;-3.49;100.00
31096;BME280;17749;51.962;8.560;2024-01-10T17:35:14;101474.94;;;-3.50;100.00
31096;BME280;17749;51.962;8.560;2024-01-10T17:37:44;101472.22;;;-3.54;100.00
31096;BME280;17749;51.962;8.560;2024-01-10T17:40:11;101474.81;;;-3.54;100.00
31096;BME280;17749;51.962;8.560;2024-01-10T17:42:39;101475.63;;;-3.55;100.00
31096;BME280;17749;51.962;8.560;2024-01-10T17:45:06;101477.13;;;-3.61;100.00
31096;BME280;17749;51.962;8.560;2024-01-10T17:47:34;101488.31;;;-3.64;100.00
31096;BME280;17749;51.962;8.560;2024-01-10T17:50:01;101485.63;;;-3.65;100.00
31096;BME280;17749;51.962;8.560;2024-01-10T17:52:28;101491.59;;;-3.68;100.00
31096;BME280;17749;51.962;8.560;2024-01-10T17:54:55;101498.34;;;-3.73;100.00
31096;BME280;17749;51.962;8.560;2024-01-10T17:57:22;101491.38;;;-3.74;100.00
31096;BME280;17749;51.962;8.560;2024-01-10T17:59:55;101497.38;;;-3.75;100.00
31096;BME280;17749;51.962;8.560;2024-01-10T18:02:22;101482.47;;;-3.79;100.00
31096;BME280;17749;51.962;8.560;2024-01-10T18:04:50;101490.34;;;-3.78;100.00
31096;BME280;17749;51.962;8.560;2024-01-10T18:07:17;101496.31;;;-3.80;100.00
31096;BME280;17749;51.962;8.560;2024-01-10T18:09:44;101499.88;;;-3.78;100.00
31096;BME280;17749;51.962;8.560;2024-01-10T18:12:11;101500.44;;;-3.85;100.00
31096;BME280;17749;51.962;8.560;2024-01-10T18:14:38;101501.19;;;-3.88;100.00
31096;BME280;17749;51.962;8.560;2024-01-10T18:17:05;101495.13;;;-3.88;100.00
31096;BME280;17749;51.962;8.560;2024-01-10T18:19:32;101502.81;;;-3.91;100.00
31096;BME280;17749;51.962;8.560;2024-01-10T18:21:59;101494.03;;;-3.93;100.00
31096;BME280;17749;51.962;8.560;2024-01-10T18:24:26;101499.13;;;-3.97;100.00
31096;BME280;17749;51.962;8.560;2024-01-10T18:26:53;101495.44;;;-4.02;100.00
31096;BME280;17749;51.962;8.560;2024-01-10T18:29:20;101493.59;;;-4.04;100.00
31096;BME280;17749;51.962;8.560;2024-01-10T18:31:48;101507.66;;;-4.01;100.00
31096;BME280;17749;51.962;8.560;2024-01-10T18:34:15;101502.59;;;-3.96;100.00
31096;BME280;17749;51.962;8.560;2024-01-10T18:36:42;101499.13;;;-3.97;100.00
31096;BME280;17749;51.962;8.560;2024-01-10T18:39:10;101493.91;;;-3.97;100.00
31096;BME280;17749;51.962;8.560;2024-01-10T18:41:41;101499.88;;;-3.99;100.00
31096;BME280;17749;51.962;8.560;2024-01-10T18:44:09;101494.56;;;-4.02;100.00
31096;BME280;17749;51.962;8.560;2024-01-10T18:46:37;101496.19;;;-4.04;100.00
31096;BME280;17749;51.962;8.560;2024-01-10T18:49:04;101494.34;;;-4.07;100.00
31096;BME280;17749;51.962;8.560;2024-01-10T18:51:33;101496.84;;;-4.10;100.00
31096;BME280;17749;51.962;8.560;2024-01-10T18:54:00;101497.59;;;-4.12;100.00
31096;BME280;17749;51.962;8.560;2024-01-10T18:56:29;101498.31;;;-4.16;100.00
31096;BME280;17749;51.962;8.560;2024-01-10T18:58:56;101494.00;;;-4.16;100.00
31096;BME280;17749;51.962;8.560;2024-01-10T19:01:23;101494.91;;;-4.14;100.00
31096;BME280;17749;51.962;8.560;2024-01-10T19:03:51;101494.00;;;-4.16;100.00
31096;BME280;17749;51.962;8.560;2024-01-10T19:06:18;101491.28;;;-4.19;100.00
31096;BME280;17749;51.962;8.560;2024-01-10T19:08:45;101491.94;;;-4.23;100.00
31096;BME280;17749;51.962;8.560;2024-01-10T19:11:12;101492.78;;;-4.24;100.00